Time;durP1;ratioP1;P1;durP2;ratioP2;P2;SDS_P1;SDS_P2;PMS_P1;PMS_P2;Temp;Humidity;BMP_temperature;BMP_pressure;BME280_temperature;BME280_humidity;BME280_pressure;Samples;Min_cycle;Max_cycle;Signal;HPM_P1;HPM_P2
2023/05/05 00:01:10;;;;;;;16.00;8.20;;;12.80;99.90;;;;;;4962952;28;20477;-74
2023/05/05 00:03:37;;;;;;;11.80;9.57;;;12.80;99.90;;;;;;4969229;28;20901;-74
2023/05/05 00:06:06;;;;;;;24.37;9.10;;;12.80;99.90;;;;;;4972210;28;20557;-75
2023/05/05 00:08:32;;;;;;;12.40;9.67;;;12.80;99.90;;;;;;4958392;28;20512;-75
2023/05/05 00:10:59;;;;;;;12.43;8.27;;;12.80;99.90;;;;;;4965887;28;20985;-75
2023/05/05 00:13:26;;;;;;;14.67;9.50;;;12.80;99.90;;;;;;4964581;28;20468;-74
2023/05/05 00:15:54;;;;;;;12.67;8.97;;;12.80;99.90;;;;;;4960616;28;20528;-75
2023/05/05 00:18:21;;;;;;;14.77;8.57;;;12.70;99.90;;;;;;4962488;28;20521;-74
2023/05/05 00:20:48;;;;;;;12.83;9.37;;;12.70;99.90;;;;;;4966019;28;20476;-75
2023/05/05 00:23:16;;;;;;;13.40;8.90;;;12.70;99.90;;;;;;4966047;28;20503;-74
2023/05/05 00:25:43;;;;;;;17.80;9.07;;;12.70;99.90;;;;;;4962448;28;20493;-75
2023/05/05 00:28:10;;;;;;;15.10;9.20;;;12.70;99.90;;;;;;4962274;28;20500;-74
2023/05/05 00:30:37;;;;;;;12.20;8.77;;;12.70;99.90;;;;;;4969365;28;20540;-75
2023/05/05 00:33:03;;;;;;;10.23;8.50;;;12.70;99.90;;;;;;4962012;28;20465;-74
2023/05/05 00:35:30;;;;;;;11.77;9.03;;;12.70;99.90;;;;;;4963964;28;20458;-75
2023/05/05 00:37:57;;;;;;;11.87;8.57;;;12.70;99.90;;;;;;4965468;28;20493;-74
2023/05/05 00:40:25;;;;;;;15.77;9.37;;;12.70;99.90;;;;;;4964493;28;20476;-74
2023/05/05 00:42:52;;;;;;;11.67;9.27;;;12.70;99.90;;;;;;4962122;28;21026;-74
2023/05/05 00:45:19;;;;;;;10.50;8.60;;;12.70;99.90;;;;;;4968244;28;20456;-75
2023/05/05 00:47:48;;;;;;;11.43;8.67;;;12.70;99.90;;;;;;4965623;28;20515;-74
2023/05/05 00:50:22;;;;;;;9.10;8.20;;;12.70;99.90;;;;;;4965260;28;20899;-74
2023/05/05 00:52:49;;;;;;;12.87;9.30;;;12.80;99.90;;;;;;4960869;28;20425;-74
2023/05/05 00:55:16;;;;;;;15.50;9.13;;;12.70;99.90;;;;;;4961894;28;20534;-75
2023/05/05 00:57:45;;;;;;;14.30;9.40;;;12.70;99.90;;;;;;4961720;28;20494;-74
2023/05/05 01:00:12;;;;;;;16.13;8.70;;;12.70;99.90;;;;;;4966540;28;21016;-74
2023/05/05 01:02:40;;;;;;;16.77;8.83;;;12.70;99.90;;;;;;4962460;28;20465;-74
2023/05/05 01:05:07;;;;;;;12.93;9.40;;;12.70;99.90;;;;;;4966400;28;20453;-74
2023/05/05 01:07:41;;;;;;;13.73;9.03;;;12.70;99.90;;;;;;4962480;28;20465;-74
2023/05/05 01:10:14;;;;;;;10.73;8.23;;;12.80;99.90;;;;;;4961552;28;20622;-74
2023/05/05 01:12:53;;;;;;;10.03;8.10;;;12.80;99.90;;;;;;4968164;28;20453;-74
2023/05/05 01:15:29;;;;;;;10.97;8.47;;;12.80;99.90;;;;;;4961557;28;20520;-75
2023/05/05 01:18:03;;;;;;;13.80;8.70;;;12.80;99.90;;;;;;4964895;28;20461;-74
2023/05/05 01:20:35;;;;;;;13.13;9.00;;;12.80;99.90;;;;;;4962517;28;20472;-74
2023/05/05 01:23:06;;;;;;;11.33;8.63;;;12.80;99.90;;;;;;4961231;28;20461;-74
2023/05/05 01:26:01;;;;;;;11.20;8.80;;;12.80;99.90;;;;;;4963035;28;20457;-74
2023/05/05 01:28:42;;;;;;;15.20;8.80;;;12.70;99.90;;;;;;4957513;28;20472;-74
2023/05/05 01:31:41;;;;;;;18.37;9.43;;;12.70;99.90;;;;;;4964894;28;20536;-74
2023/05/05 01:34:13;;;;;;;10.80;8.33;;;12.70;99.90;;;;;;4960763;28;20536;-74
2023/05/05 01:36:44;;;;;;;13.30;8.87;;;12.70;99.90;;;;;;4968288;28;20473;-74
2023/05/05 01:39:15;;;;;;;20.93;8.70;;;12.70;99.90;;;;;;4961333;28;20489;-74
2023/05/05 01:41:45;;;;;;;11.63;8.47;;;12.60;99.90;;;;;;4964155;28;20477;-74
2023/05/05 01:44:15;;;;;;;14.50;8.50;;;12.50;99.90;;;;;;4964164;28;20457;-74
2023/05/05 01:46:42;;;;;;;16.73;8.43;;;12.50;99.90;;;;;;4961217;28;20485;-74
2023/05/05 01:49:11;;;;;;;15.10;9.40;;;12.50;99.90;;;;;;4960933;28;20445;-74
2023/05/05 01:51:39;;;;;;;18.50;9.60;;;12.50;99.90;;;;;;4960940;28;21063;-74
2023/05/05 01:54:09;;;;;;;10.80;9.33;;;12.40;99.90;;;;;;4967072;28;20444;-74
2023/05/05 01:56:39;;;;;;;13.30;8.43;;;12.40;99.90;;;;;;4963615;28;20890;-74
2023/05/05 01:59:07;;;;;;;11.60;8.40;;;12.40;99.90;;;;;;4964225;28;20547;-74
2023/05/05 02:01:37;;;;;;;12.50;9.03;;;12.40;99.90;;;;;;4969361;28;20926;-74
2023/05/05 02:04:08;;;;;;;16.43;9.57;;;12.30;99.90;;;;;;4960428;28;20481;-75
2023/05/05 02:06:38;;;;;;;12.80;8.43;;;12.30;99.90;;;;;;4962226;28;20466;-74
2023/05/05 02:09:05;;;;;;;11.10;8.67;;;12.30;99.90;;;;;;4963876;28;20465;-74
2023/05/05 02:11:32;;;;;;;17.53;9.00;;;12.20;99.90;;;;;;4961952;28;21060;-74
2023/05/05 02:14:01;;;;;;;14.83;9.43;;;12.10;99.90;;;;;;4964031;28;20452;-74
2023/05/05 02:16:29;;;;;;;15.10;8.90;;;12.10;99.90;;;;;;4963314;28;20950;-74
2023/05/05 02:18:58;;;;;;;10.53;9.23;;;12.10;99.90;;;;;;4963801;28;21031;-74
2023/05/05 02:21:25;;;;;;;13.50;8.97;;;12.00;99.90;;;;;;4963179;28;21025;-74
2023/05/05 02:23:53;;;;;;;12.60;9.10;;;12.00;99.90;;;;;;4964155;28;20531;-74
2023/05/05 02:26:21;;;;;;;13.63;9.90;;;11.90;99.90;;;;;;4963234;28;20548;-75
2023/05/05 02:28:52;;;;;;;13.43;10.40;;;11.90;99.90;;;;;;4955355;28;20853;-74
2023/05/05 02:31:21;;;;;;;15.20;9.33;;;11.80;99.90;;;;;;4963375;28;20909;-74
2023/05/05 02:33:51;;;;;;;12.10;10.00;;;11.80;99.90;;;;;;4968279;28;21023;-74
2023/05/05 02:36:21;;;;;;;12.20;10.23;;;11.70;99.90;;;;;;4960016;28;20516;-74
2023/05/05 02:38:56;;;;;;;14.30;9.67;;;11.70;99.90;;;;;;4963247;28;20869;-74
2023/05/05 02:41:25;;;;;;;18.20;9.87;;;11.60;99.90;;;;;;4962893;28;21047;-74
2023/05/05 02:43:54;;;;;;;18.37;9.20;;;11.60;99.90;;;;;;4960105;28;21021;-74
2023/05/05 02:46:21;;;;;;;14.00;10.03;;;11.60;99.90;;;;;;4960233;28;20450;-74
2023/05/05 02:48:47;;;;;;;14.80;10.70;;;11.60;99.90;;;;;;4963249;28;21087;-74
2023/05/05 02:51:14;;;;;;;20.13;10.37;;;11.60;99.90;;;;;;4960093;28;20529;-74
2023/05/05 02:53:41;;;;;;;12.70;10.47;;;11.50;99.90;;;;;;4962510;28;20460;-74
2023/05/05 02:56:16;;;;;;;13.40;10.23;;;11.60;99.90;;;;;;4963217;28;21017;-74
2023/05/05 02:58:51;;;;;;;14.40;9.40;;;11.50;99.90;;;;;;4961116;28;21058;-74
2023/05/05 03:01:34;;;;;;;15.30;10.80;;;11.50;99.90;;;;;;4962260;28;20831;-74
2023/05/05 03:04:06;;;;;;;12.17;9.50;;;11.40;99.90;;;;;;4960064;28;20461;-74
2023/05/05 03:06:39;;;;;;;13.87;9.50;;;11.50;99.90;;;;;;4960999;28;20453;-74
2023/05/05 03:09:10;;;;;;;15.80;9.47;;;11.50;99.90;;;;;;4963402;28;21028;-74
2023/05/05 03:11:43;;;;;;;20.73;9.80;;;11.50;99.90;;;;;;4961290;28;20477;-74
2023/05/05 03:14:13;;;;;;;13.97;9.40;;;11.40;99.90;;;;;;4960048;28;20866;-74
2023/05/05 03:16:41;;;;;;;13.27;9.70;;;11.40;99.90;;;;;;4964469;28;20984;-75
2023/05/05 03:19:11;;;;;;;14.60;9.70;;;11.40;99.90;;;;;;4966809;28;20551;-74
2023/05/05 03:21:38;;;;;;;13.30;9.30;;;11.50;99.90;;;;;;4965424;28;20487;-74
2023/05/05 03:24:13;;;;;;;13.13;9.50;;;11.50;99.90;;;;;;4963759;28;20458;-74
2023/05/05 03:26:39;;;;;;;12.60;9.00;;;11.50;99.90;;;;;;4966143;28;20936;-74
2023/05/05 03:29:06;;;;;;;13.47;10.00;;;11.50;99.90;;;;;;4963712;28;20449;-75
2023/05/05 03:31:34;;;;;;;11.00;9.10;;;11.40;99.90;;;;;;4964300;28;20477;-74
2023/05/05 03:34:01;;;;;;;13.80;8.83;;;11.40;99.90;;;;;;4966989;28;20515;-75
2023/05/05 03:36:27;;;;;;;14.40;9.20;;;11.40;99.90;;;;;;4965929;28;20471;-74
2023/05/05 03:38:54;;;;;;;19.03;9.93;;;11.40;99.90;;;;;;4962813;28;20540;-74
2023/05/05 03:41:22;;;;;;;12.73;9.03;;;11.40;99.90;;;;;;4963679;28;20546;-74
2023/05/05 03:43:49;;;;;;;15.53;9.63;;;11.40;99.90;;;;;;4966314;28;20461;-74
2023/05/05 03:46:16;;;;;;;14.00;9.20;;;11.40;99.90;;;;;;4966551;28;20469;-74
2023/05/05 03:48:44;;;;;;;21.63;9.33;;;11.40;99.90;;;;;;4964103;28;20463;-74
2023/05/05 03:51:12;;;;;;;16.27;8.90;;;11.40;99.90;;;;;;4966254;28;20476;-74
2023/05/05 03:53:38;;;;;;;11.67;9.10;;;11.40;99.90;;;;;;4964703;28;20452;-74
2023/05/05 03:56:05;;;;;;;13.23;9.10;;;11.40;99.90;;;;;;4965640;28;20462;-74
2023/05/05 03:58:32;;;;;;;11.47;9.00;;;11.40;99.90;;;;;;4963662;28;20481;-74
2023/05/05 04:00:58;;;;;;;11.13;8.67;;;11.40;99.90;;;;;;4969928;28;20932;-74
2023/05/05 04:03:25;;;;;;;10.50;8.70;;;11.40;99.90;;;;;;4965912;28;20457;-74
2023/05/05 04:05:53;;;;;;;17.10;8.60;;;11.40;99.90;;;;;;4968317;28;20561;-74
2023/05/05 04:08:19;;;;;;;12.20;9.20;;;11.40;99.90;;;;;;4962344;28;20461;-74
2023/05/05 04:10:46;;;;;;;21.97;9.27;;;11.40;99.90;;;;;;4963615;28;20477;-75
2023/05/05 04:13:13;;;;;;;10.10;8.47;;;11.30;99.90;;;;;;4962558;28;21163;-74
2023/05/05 04:15:44;;;;;;;17.80;9.90;;;11.30;99.90;;;;;;4964004;28;20461;-74
2023/05/05 04:18:11;;;;;;;16.30;10.07;;;11.30;99.90;;;;;;4966000;28;20459;-74
2023/05/05 04:20:37;;;;;;;13.30;9.47;;;11.30;99.90;;;;;;4964241;28;20496;-74
2023/05/05 04:23:05;;;;;;;13.40;9.80;;;11.30;99.90;;;;;;4961949;28;20507;-74
2023/05/05 04:25:32;;;;;;;17.57;9.57;;;11.30;99.90;;;;;;4965392;28;20868;-74
2023/05/05 04:27:58;;;;;;;16.73;10.23;;;11.30;99.90;;;;;;4961127;28;20942;-75
2023/05/05 04:30:25;;;;;;;12.83;9.40;;;11.30;99.90;;;;;;4962818;28;20472;-74
2023/05/05 04:32:52;;;;;;;19.73;10.83;;;11.30;99.90;;;;;;4962397;28;20512;-74
2023/05/05 04:35:18;;;;;;;14.40;9.03;;;11.30;99.90;;;;;;4962468;28;20454;-75
2023/05/05 04:37:45;;;;;;;14.97;8.70;;;11.30;99.90;;;;;;4964270;28;20524;-74
2023/05/05 04:40:13;;;;;;;15.60;9.27;;;11.40;99.90;;;;;;4961067;28;21034;-74
2023/05/05 04:42:40;;;;;;;11.93;9.33;;;11.40;99.90;;;;;;4963615;28;20485;-74
2023/05/05 04:45:08;;;;;;;14.83;9.37;;;11.40;99.90;;;;;;4968039;28;20928;-71
2023/05/05 04:47:37;;;;;;;14.17;9.60;;;11.50;99.90;;;;;;4963651;28;20906;-71
2023/05/05 04:50:04;;;;;;;13.63;8.50;;;11.60;99.90;;;;;;4963705;28;20460;-71
2023/05/05 04:52:31;;;;;;;13.60;9.47;;;11.60;99.90;;;;;;4963297;28;20949;-71
2023/05/05 04:54:58;;;;;;;12.93;9.20;;;11.70;99.90;;;;;;4960858;28;20454;-71
2023/05/05 04:57:26;;;;;;;14.27;9.47;;;11.80;99.90;;;;;;4962081;28;20513;-71
2023/05/05 04:59:53;;;;;;;20.70;9.50;;;11.90;99.90;;;;;;4967766;28;20556;-71
2023/05/05 05:02:20;;;;;;;14.37;10.00;;;12.00;99.90;;;;;;4965566;28;20468;-71
2023/05/05 05:04:46;;;;;;;13.50;8.60;;;12.10;99.90;;;;;;4961399;28;20454;-71
2023/05/05 05:07:14;;;;;;;19.23;9.33;;;12.10;99.90;;;;;;4964866;28;20946;-71
2023/05/05 05:09:40;;;;;;;15.10;9.07;;;12.10;99.90;;;;;;4963448;28;20503;-71
2023/05/05 05:12:08;;;;;;;13.97;9.30;;;12.20;99.90;;;;;;4961508;28;20513;-71
2023/05/05 05:14:38;;;;;;;10.77;8.60;;;12.30;99.90;;;;;;4962022;28;20493;-71
2023/05/05 05:17:04;;;;;;;16.57;10.10;;;12.30;99.90;;;;;;4964429;28;20461;-71
2023/05/05 05:19:31;;;;;;;21.10;10.00;;;12.40;99.90;;;;;;4963407;28;20489;-71
2023/05/05 05:21:58;;;;;;;18.37;10.50;;;12.40;99.90;;;;;;4962756;28;20515;-71
2023/05/05 05:24:25;;;;;;;16.30;11.13;;;12.50;99.90;;;;;;4960416;28;20504;-70
2023/05/05 05:26:51;;;;;;;20.87;9.77;;;12.60;99.90;;;;;;4962588;28;20464;-70
2023/05/05 05:29:19;;;;;;;21.07;9.90;;;12.70;99.90;;;;;;4960652;28;20454;-70
2023/05/05 05:31:47;;;;;;;17.97;9.10;;;12.80;99.90;;;;;;4952082;28;20493;-70
2023/05/05 05:34:13;;;;;;;11.10;9.17;;;12.80;99.90;;;;;;4954283;28;20876;-70
2023/05/05 05:36:40;;;;;;;19.17;9.97;;;12.90;99.90;;;;;;4960497;28;20527;-70
2023/05/05 05:39:06;;;;;;;19.10;9.80;;;13.00;99.90;;;;;;4961242;28;20458;-70
2023/05/05 05:41:33;;;;;;;16.80;10.67;;;13.00;99.90;;;;;;4961200;28;20508;-69
2023/05/05 05:44:00;;;;;;;14.27;10.13;;;13.10;99.90;;;;;;4964351;28;20445;-69
2023/05/05 05:46:26;;;;;;;17.97;9.97;;;13.30;99.90;;;;;;4964195;28;20453;-70
2023/05/05 05:48:55;;;;;;;12.40;9.60;;;13.40;99.90;;;;;;4963227;28;20461;-69
2023/05/05 05:51:21;;;;;;;13.00;9.57;;;13.50;99.90;;;;;;4961063;28;20892;-69
2023/05/05 05:53:48;;;;;;;21.43;9.30;;;13.70;99.90;;;;;;4963056;28;20458;-69
2023/05/05 05:56:15;;;;;;;14.93;8.83;;;13.80;99.90;;;;;;4960899;28;20488;-70
2023/05/05 05:58:41;;;;;;;12.50;9.27;;;13.80;99.90;;;;;;4961696;28;20800;-69
2023/05/05 06:01:08;;;;;;;19.87;9.20;;;13.90;99.90;;;;;;4964343;28;20489;-70
2023/05/05 06:03:34;;;;;;;12.70;9.20;;;13.90;99.90;;;;;;4967402;28;20461;-70
2023/05/05 06:06:02;;;;;;;18.70;9.13;;;14.00;99.90;;;;;;4963204;28;20528;-70
2023/05/05 06:08:29;;;;;;;18.03;9.70;;;14.20;99.90;;;;;;4960445;28;21017;-69
2023/05/05 06:10:56;;;;;;;12.80;9.30;;;14.40;99.90;;;;;;4968646;28;20469;-70
2023/05/05 06:13:22;;;;;;;14.40;8.80;;;14.80;99.90;;;;;;4967134;28;20465;-69
2023/05/05 06:15:49;;;;;;;25.33;10.33;;;15.20;99.90;;;;;;4955043;28;20512;-69
2023/05/05 06:18:16;;;;;;;20.10;9.37;;;15.40;99.90;;;;;;4963034;28;20461;-70
2023/05/05 06:20:43;;;;;;;10.50;8.57;;;15.60;99.90;;;;;;4963535;28;20528;-69
2023/05/05 06:23:11;;;;;;;11.77;8.17;;;15.70;99.90;;;;;;4965758;28;20454;-70
2023/05/05 06:25:37;;;;;;;12.97;8.57;;;15.70;99.90;;;;;;4960184;28;20454;-70
2023/05/05 06:28:06;;;;;;;12.70;9.27;;;15.60;99.90;;;;;;4962094;28;20519;-70
2023/05/05 06:30:32;;;;;;;12.50;9.17;;;15.60;99.90;;;;;;4958545;28;21027;-70
2023/05/05 06:32:59;;;;;;;10.67;9.33;;;15.70;99.90;;;;;;4963700;28;20457;-70
2023/05/05 06:35:26;;;;;;;11.27;8.60;;;15.80;99.90;;;;;;4956427;28;20513;-70
2023/05/05 06:37:52;;;;;;;14.43;9.63;;;16.00;99.90;;;;;;4962192;28;21005;-69
2023/05/05 06:40:20;;;;;;;14.93;9.10;;;16.20;99.90;;;;;;4963262;28;20500;-70
2023/05/05 06:42:47;;;;;;;14.83;9.20;;;16.30;99.90;;;;;;4961803;28;20457;-70
2023/05/05 06:45:14;;;;;;;13.70;9.83;;;16.40;99.90;;;;;;4963171;28;20512;-70
2023/05/05 06:47:41;;;;;;;21.33;9.13;;;16.60;99.90;;;;;;4962913;28;20458;-70
2023/05/05 06:50:08;;;;;;;12.70;8.63;;;16.70;99.90;;;;;;4959863;28;20469;-69
2023/05/05 06:52:35;;;;;;;19.77;9.00;;;16.70;99.90;;;;;;4963813;28;20454;-71
2023/05/05 06:55:02;;;;;;;15.30;9.67;;;16.80;99.90;;;;;;4963032;28;20595;-70
2023/05/05 06:57:30;;;;;;;11.47;8.60;;;16.80;99.90;;;;;;4962889;28;20468;-70
2023/05/05 06:59:57;;;;;;;11.93;8.60;;;16.70;99.90;;;;;;4969036;28;20481;-70
2023/05/05 07:02:23;;;;;;;14.53;9.13;;;16.70;99.90;;;;;;4965635;28;20456;-70
2023/05/05 07:04:50;;;;;;;15.60;9.60;;;16.60;99.90;;;;;;4968896;28;21020;-71
2023/05/05 07:07:17;;;;;;;14.67;9.20;;;16.60;99.90;;;;;;4966144;28;20452;-70
2023/05/05 07:09:44;;;;;;;14.93;9.67;;;16.90;99.90;;;;;;4965150;28;20551;-70
2023/05/05 07:12:11;;;;;;;17.73;9.80;;;17.20;99.90;;;;;;4962911;28;20459;-70
2023/05/05 07:14:39;;;;;;;18.60;9.07;;;17.50;99.90;;;;;;4967402;28;21277;-70
2023/05/05 07:17:06;;;;;;;16.17;9.40;;;17.40;99.90;;;;;;4966043;28;20839;-70
2023/05/05 07:19:33;;;;;;;15.17;10.20;;;17.40;99.90;;;;;;4966333;28;20493;-71
2023/05/05 07:21:59;;;;;;;10.73;9.10;;;17.60;99.90;;;;;;4963121;28;20591;-71
2023/05/05 07:24:26;;;;;;;18.97;9.90;;;17.90;99.90;;;;;;4962483;28;20489;-70
2023/05/05 07:26:52;;;;;;;13.13;8.80;;;17.90;99.90;;;;;;4962640;28;20460;-71
2023/05/05 07:29:19;;;;;;;15.00;10.00;;;17.90;99.90;;;;;;4965615;28;20424;-70
2023/05/05 07:31:47;;;;;;;18.60;10.23;;;17.90;99.90;;;;;;4971835;28;20909;-71
2023/05/05 07:34:13;;;;;;;21.37;9.57;;;18.10;99.90;;;;;;4967705;28;20431;-70
2023/05/05 07:36:40;;;;;;;20.93;10.20;;;18.30;99.90;;;;;;4965032;28;20614;-71
2023/05/05 07:39:07;;;;;;;19.60;10.40;;;18.10;99.90;;;;;;4966687;28;20428;-70
2023/05/05 07:41:33;;;;;;;14.93;10.80;;;18.10;99.90;;;;;;4960676;28;20501;-70
2023/05/05 07:44:00;;;;;;;23.93;11.07;;;18.20;99.90;;;;;;4961322;28;20946;-71
2023/05/05 07:46:27;;;;;;;15.77;10.70;;;18.30;99.90;;;;;;4969192;28;20552;-69
2023/05/05 07:48:55;;;;;;;16.30;11.00;;;18.30;99.90;;;;;;4962685;28;20524;-69
2023/05/05 07:51:22;;;;;;;18.50;10.17;;;18.40;99.90;;;;;;4965760;28;20515;-70
2023/05/05 07:53:48;;;;;;;20.70;10.67;;;18.60;99.90;;;;;;4964739;28;20797;-70
2023/05/05 07:56:15;;;;;;;20.43;9.83;;;18.70;99.90;;;;;;4956877;28;20457;-70
2023/05/05 07:58:41;;;;;;;22.67;10.10;;;19.00;99.90;;;;;;4966523;28;20986;-70
2023/05/05 08:01:09;;;;;;;14.23;10.53;;;19.30;99.90;;;;;;4966741;28;20966;-70
2023/05/05 08:03:36;;;;;;;13.63;10.50;;;19.40;99.90;;;;;;4961765;28;20440;-70
2023/05/05 08:06:08;;;;;;;17.43;10.80;;;19.70;99.90;;;;;;4965917;28;20886;-70
2023/05/05 08:08:36;;;;;;;13.77;10.00;;;19.90;99.90;;;;;;4962908;28;20453;-70
2023/05/05 08:11:05;;;;;;;15.77;10.67;;;19.90;99.90;;;;;;4966317;28;20469;-70
2023/05/05 08:13:31;;;;;;;13.47;9.67;;;19.70;99.90;;;;;;4965941;28;20924;-70
2023/05/05 08:15:58;;;;;;;20.67;10.33;;;19.70;99.90;;;;;;4965055;28;20464;-69
2023/05/05 08:18:25;;;;;;;14.10;10.77;;;19.90;99.90;;;;;;4966057;28;20531;-69
2023/05/05 08:20:53;;;;;;;15.20;10.57;;;19.90;99.90;;;;;;4964302;28;20499;-69
2023/05/05 08:23:21;;;;;;;14.00;10.13;;;20.00;99.90;;;;;;4966238;28;20436;-69
2023/05/05 08:25:48;;;;;;;16.20;9.20;;;20.20;99.90;;;;;;4964629;28;20435;-69
2023/05/05 08:28:14;;;;;;;14.87;9.70;;;20.40;99.90;;;;;;4962368;28;20491;-70
2023/05/05 08:30:41;;;;;;;12.33;10.17;;;20.60;99.90;;;;;;4968607;28;20457;-69
2023/05/05 08:33:08;;;;;;;15.53;9.10;;;20.70;99.90;;;;;;4965453;28;20450;-70
2023/05/05 08:35:34;;;;;;;13.33;8.87;;;20.80;99.90;;;;;;4958224;28;20468;-69
2023/05/05 08:38:01;;;;;;;12.57;9.07;;;20.80;99.90;;;;;;4964359;28;20488;-69
2023/05/05 08:40:33;;;;;;;10.87;9.20;;;21.20;99.90;;;;;;4965681;28;20499;-70
2023/05/05 08:43:01;;;;;;;13.33;9.50;;;21.60;99.90;;;;;;4962836;28;20459;-69
2023/05/05 08:45:29;;;;;;;12.43;9.40;;;22.10;99.90;;;;;;4962006;28;20525;-70
2023/05/05 08:47:57;;;;;;;20.67;10.70;;;22.00;99.90;;;;;;4963066;28;20457;-70
2023/05/05 08:50:26;;;;;;;14.93;8.90;;;22.00;99.90;;;;;;4962173;28;20474;-70
2023/05/05 08:52:57;;;;;;;16.40;10.13;;;22.20;99.90;;;;;;4963598;28;20462;-70
2023/05/05 08:55:26;;;;;;;29.10;10.03;;;22.10;99.90;;;;;;4959764;28;20464;-71
2023/05/05 08:57:56;;;;;;;15.57;10.53;;;22.20;99.90;;;;;;4962661;28;20512;-71
2023/05/05 09:00:25;;;;;;;13.50;9.73;;;22.50;99.90;;;;;;4967046;28;20483;-70
2023/05/05 09:02:54;;;;;;;14.33;10.40;;;22.80;99.90;;;;;;4962958;28;20501;-70
2023/05/05 09:05:20;;;;;;;14.63;10.10;;;23.30;99.90;;;;;;4968130;28;20516;-70
2023/05/05 09:07:47;;;;;;;13.43;10.00;;;23.50;99.90;;;;;;4963782;28;20507;-69
2023/05/05 09:10:14;;;;;;;13.17;9.83;;;23.40;99.90;;;;;;4961479;28;20488;-70
2023/05/05 09:12:41;;;;;;;14.33;9.73;;;23.40;99.90;;;;;;4961469;28;20452;-70
2023/05/05 09:15:11;;;;;;;10.93;9.60;;;23.60;99.90;;;;;;4963130;28;20489;-70
2023/05/05 09:17:38;;;;;;;13.23;9.63;;;23.40;99.90;;;;;;4969075;28;20843;-71
2023/05/05 09:20:06;;;;;;;15.03;9.43;;;23.10;99.90;;;;;;4961940;28;20481;-70
2023/05/05 09:22:35;;;;;;;21.70;11.73;;;22.90;99.90;;;;;;4961272;28;20755;-70
2023/05/05 09:25:02;;;;;;;15.17;10.40;;;22.90;99.90;;;;;;4964064;28;20458;-70
2023/05/05 09:27:28;;;;;;;16.00;9.90;;;22.80;99.90;;;;;;4964476;28;20510;-70
2023/05/05 09:29:56;;;;;;;12.93;10.27;;;22.60;99.90;;;;;;4963456;28;20520;-70
2023/05/05 09:32:24;;;;;;;24.73;10.87;;;22.30;99.90;;;;;;4958462;28;20458;-69
2023/05/05 09:34:58;;;;;;;15.20;11.60;;;22.00;99.90;;;;;;4963642;28;20453;-70
2023/05/05 09:37:29;;;;;;;16.03;10.97;;;21.90;99.90;;;;;;4966547;28;20467;-70
2023/05/05 09:39:57;;;;;;;19.80;10.33;;;22.10;99.90;;;;;;4962582;28;20544;-70
2023/05/05 09:42:24;;;;;;;14.97;10.33;;;22.30;99.90;;;;;;4970802;28;20492;-70
2023/05/05 09:44:51;;;;;;;16.03;11.30;;;22.40;99.90;;;;;;4963962;28;20536;-70
2023/05/05 09:47:18;;;;;;;15.50;10.23;;;22.40;99.90;;;;;;4963795;28;20463;-69
2023/05/05 09:49:57;;;;;;;14.57;9.33;;;22.40;99.90;;;;;;4963611;28;20511;-70
2023/05/05 09:52:24;;;;;;;16.23;9.73;;;22.30;99.90;;;;;;4966772;28;20448;-69
2023/05/05 09:54:54;;;;;;;15.20;8.77;;;22.40;99.90;;;;;;4968781;28;20510;-70
2023/05/05 09:57:29;;;;;;;13.80;9.13;;;22.50;99.90;;;;;;4960555;28;20912;-70
2023/05/05 09:59:57;;;;;;;11.83;8.90;;;22.40;99.90;;;;;;4969354;28;20468;-70
2023/05/05 10:02:31;;;;;;;16.73;8.90;;;22.30;99.90;;;;;;4958747;28;20489;-70
2023/05/05 10:05:09;;;;;;;14.20;9.70;;;22.30;99.90;;;;;;4967028;28;20456;-70
2023/05/05 10:07:37;;;;;;;19.20;10.20;;;22.30;99.90;;;;;;4960312;28;20456;-71
2023/05/05 10:10:06;;;;;;;16.27;10.03;;;22.20;99.90;;;;;;4961466;28;20539;-71
2023/05/05 10:12:34;;;;;;;16.40;10.30;;;22.00;99.90;;;;;;4965437;28;20531;-70
2023/05/05 10:15:02;;;;;;;15.40;9.87;;;21.80;99.90;;;;;;4963289;28;20473;-70
2023/05/05 10:17:31;;;;;;;16.80;9.73;;;21.80;99.90;;;;;;4960473;28;20450;-70
2023/05/05 10:20:00;;;;;;;20.63;10.20;;;21.70;99.90;;;;;;4962541;28;20445;-69
2023/05/05 10:22:34;;;;;;;15.03;9.40;;;21.60;99.90;;;;;;4963356;28;20489;-70
2023/05/05 10:25:04;;;;;;;18.70;10.00;;;21.60;99.90;;;;;;4962713;28;20556;-70
2023/05/05 10:27:38;;;;;;;13.23;10.47;;;21.40;99.90;;;;;;4963485;28;20515;-70
2023/05/05 10:30:07;;;;;;;13.73;9.50;;;21.30;99.90;;;;;;4963457;28;20510;-70
2023/05/05 10:32:39;;;;;;;17.20;10.30;;;21.40;99.90;;;;;;4965049;28;20458;-70
2023/05/05 10:35:08;;;;;;;13.03;10.00;;;21.60;99.90;;;;;;4962895;28;20528;-70
2023/05/05 10:37:38;;;;;;;12.80;9.10;;;21.80;99.90;;;;;;4958501;28;20468;-71
2023/05/05 10:40:07;;;;;;;13.93;9.30;;;22.00;99.90;;;;;;4960915;28;20476;-70
2023/05/05 10:42:36;;;;;;;16.53;9.13;;;22.00;99.90;;;;;;4960169;28;21009;-71
2023/05/05 10:45:03;;;;;;;14.57;9.57;;;21.90;99.90;;;;;;4967718;28;20533;-70
2023/05/05 10:47:31;;;;;;;13.63;8.93;;;22.00;99.90;;;;;;4959563;28;20453;-71
2023/05/05 10:50:05;;;;;;;17.67;9.33;;;22.10;99.90;;;;;;4968015;28;20476;-71
2023/05/05 10:52:37;;;;;;;12.40;9.17;;;22.00;99.90;;;;;;4960301;28;20450;-71
2023/05/05 10:55:12;;;;;;;12.00;9.50;;;22.00;99.90;;;;;;4962461;28;20454;-71
2023/05/05 10:57:41;;;;;;;11.53;8.87;;;21.90;99.90;;;;;;4962020;28;20523;-71
2023/05/05 11:00:09;;;;;;;12.90;8.97;;;21.80;99.90;;;;;;4962954;28;21079;-71
2023/05/05 11:02:36;;;;;;;11.17;9.60;;;21.50;99.90;;;;;;4963169;28;20481;-71
2023/05/05 11:05:08;;;;;;;11.50;9.27;;;21.30;99.90;;;;;;4968610;28;20813;-71
2023/05/05 11:07:35;;;;;;;13.40;9.30;;;21.10;99.90;;;;;;4963253;28;20880;-71
2023/05/05 11:10:03;;;;;;;14.43;9.43;;;21.00;99.90;;;;;;4961529;28;20481;-71
2023/05/05 11:12:32;;;;;;;12.27;8.30;;;20.90;99.90;;;;;;4960179;28;20445;-71
2023/05/05 11:15:36;;;;;;;18.70;9.67;;;20.90;99.90;;;;;;4960702;28;20523;-71
2023/05/05 11:18:04;;;;;;;16.03;9.00;;;20.80;99.90;;;;;;4962814;28;20516;-71
2023/05/05 11:21:07;;;;;;;15.90;9.17;;;20.70;99.90;;;;;;4963100;28;20477;-71
2023/05/05 11:23:34;;;;;;;13.90;10.37;;;20.70;99.90;;;;;;4964941;28;20456;-70
2023/05/05 11:26:01;;;;;;;15.60;10.00;;;20.60;99.90;;;;;;4963485;28;21024;-70
2023/05/05 11:28:30;;;;;;;22.63;8.27;;;20.40;99.90;;;;;;4959603;28;20458;-71
2023/05/05 11:31:18;;;;;;;10.47;7.00;;;20.40;99.90;;;;;;4961297;28;20469;-73
2023/05/05 11:33:45;;;;;;;14.90;7.73;;;19.90;99.90;;;;;;4957502;28;20457;-70
2023/05/05 11:36:13;;;;;;;15.60;7.20;;;19.40;99.90;;;;;;4959798;28;20457;-71
2023/05/05 11:39:03;;;;;;;12.10;5.90;;;18.90;99.90;;;;;;4963335;28;20455;-71
2023/05/05 11:41:58;;;;;;;8.23;5.53;;;18.50;99.90;;;;;;4963443;28;20489;-71
2023/05/05 11:44:34;;;;;;;13.07;6.40;;;18.10;99.90;;;;;;4965884;28;20427;-69
2023/05/05 11:47:30;;;;;;;11.37;5.70;;;18.00;99.90;;;;;;4962141;28;20472;-70
2023/05/05 11:49:57;;;;;;;6.57;4.83;;;18.00;99.90;;;;;;4969197;28;20514;-70
2023/05/05 11:52:26;;;;;;;7.07;4.50;;;18.00;99.90;;;;;;4966257;28;20983;-70
2023/05/05 11:54:53;;;;;;;6.03;4.60;;;18.00;99.90;;;;;;4965699;28;20456;-70
2023/05/05 11:57:26;;;;;;;6.20;4.83;;;18.00;99.90;;;;;;4959049;28;20452;-70
2023/05/05 11:59:56;;;;;;;7.23;4.07;;;18.00;99.90;;;;;;4962176;28;20495;-69
2023/05/05 12:02:23;;;;;;;4.33;4.03;;;18.10;99.90;;;;;;4962721;28;20867;-70
2023/05/05 12:04:52;;;;;;;5.43;4.93;;;18.20;99.90;;;;;;4968272;28;20436;-70
2023/05/05 12:07:20;;;;;;;10.37;5.80;;;18.20;99.90;;;;;;4970624;28;20897;-70
2023/05/05 12:09:48;;;;;;;5.20;4.70;;;18.30;99.90;;;;;;4957317;28;20481;-70
2023/05/05 12:12:16;;;;;;;7.77;4.70;;;18.50;99.90;;;;;;4965730;28;20990;-70
2023/05/05 12:14:47;;;;;;;9.93;4.30;;;19.00;99.90;;;;;;4965914;28;20453;-70
2023/05/05 12:17:15;;;;;;;7.87;5.27;;;19.70;99.90;;;;;;4957403;28;20453;-69
2023/05/05 12:19:45;;;;;;;9.40;5.00;;;20.10;99.90;;;;;;4966294;28;20864;-70
2023/05/05 12:22:21;;;;;;;8.70;3.77;;;20.40;99.90;;;;;;4964674;28;20966;-69
2023/05/05 12:24:55;;;;;;;3.70;3.40;;;20.50;99.90;;;;;;4965461;28;20447;-70
2023/05/05 12:27:23;;;;;;;4.30;3.90;;;20.70;99.90;;;;;;4965546;28;20452;-70
2023/05/05 12:29:50;;;;;;;5.17;4.60;;;20.50;99.90;;;;;;4965283;28;20476;-70
2023/05/05 12:32:23;;;;;;;4.63;4.17;;;20.40;99.90;;;;;;4971534;28;20431;-70
2023/05/05 12:34:53;;;;;;;7.00;4.80;;;20.40;99.90;;;;;;4965519;28;20494;-70
2023/05/05 12:37:21;;;;;;;5.47;4.60;;;20.40;99.90;;;;;;4961048;28;20577;-71
2023/05/05 12:39:48;;;;;;;4.30;3.90;;;20.40;99.90;;;;;;4962379;28;20528;-70
2023/05/05 12:42:15;;;;;;;5.53;4.70;;;20.40;99.90;;;;;;4970087;28;20548;-70
2023/05/05 12:44:43;;;;;;;7.33;4.70;;;20.30;99.90;;;;;;4961535;28;20456;-70